Time,TemperatureF,DewpointF,PressureIn,WindDirection,WindDirectionDegrees,WindSpeedMPH,WindSpeedGustMPH,Humidity,HourlyPrecipIn,Conditions,Clouds,dailyrainin,SolarRadiationWatts/m^2,SoftwareType,DateUTC
2013-07-06 00:12:00,54.0,46.0,-100.00,SE,144,16.0,24.0,73,0.00,,,0.47,0.000000,,2013-07-06 06:12:00,
2013-07-06 00:22:00,54.0,46.0,-100.00,SE,144,16.0,24.0,73,0.00,,,0.47,0.000000,,2013-07-06 06:22:00,
2013-07-06 00:34:00,54.0,46.0,-100.00,SE,144,16.0,24.0,73,0.00,,,0.47,0.000000,,2013-07-06 06:34:00,
2013-07-06 00:43:00,54.0,46.0,-100.00,SE,144,16.0,24.0,73,0.00,,,0.47,0.000000,,2013-07-06 06:43:00,
2013-07-06 00:52:00,56.0,44.0,-100.00,SSW,209,14.0,21.0,65,0.00,,,0.47,0.000000,,2013-07-06 06:52:00,
2013-07-06 01:22:00,56.0,44.0,-100.00,SSW,209,14.0,21.0,65,0.00,,,0.47,0.000000,,2013-07-06 07:22:00,
2013-07-06 01:33:00,56.0,44.0,-100.00,SSW,209,14.0,21.0,65,0.00,,,0.47,0.000000,,2013-07-06 07:33:00,
2013-07-06 01:44:00,56.0,44.0,-100.00,SSW,209,14.0,21.0,65,0.00,,,0.47,0.000000,,2013-07-06 07:44:00,
2013-07-06 01:52:00,52.0,47.0,-100.00,West,259,12.0,23.0,82,0.00,,,0.47,0.000000,,2013-07-06 07:52:00,
2013-07-06 02:21:00,52.0,47.0,-100.00,West,259,12.0,23.0,82,0.00,,,0.47,0.000000,,2013-07-06 08:21:00,
2013-07-06 02:34:00,52.0,47.0,-100.00,West,259,12.0,23.0,82,0.00,,,0.47,0.000000,,2013-07-06 08:34:00,
2013-07-06 02:43:00,52.0,47.0,-100.00,West,259,12.0,23.0,82,0.00,,,0.47,0.000000,,2013-07-06 08:43:00,
2013-07-06 02:52:00,48.0,48.0,-100.00,NNW,328,16.0,22.0,99,0.00,,,0.47,0.000000,,2013-07-06 08:52:00,
2013-07-06 03:22:00,48.0,48.0,-100.00,NNW,328,16.0,22.0,99,0.00,,,0.47,0.000000,,2013-07-06 09:22:00,
2013-07-06 03:33:00,48.0,48.0,-100.00,NNW,328,16.0,22.0,99,0.00,,,0.47,0.000000,,2013-07-06 09:33:00,
2013-07-06 03:43:00,48.0,48.0,-100.00,NNW,328,16.0,22.0,99,0.00,,,0.47,0.000000,,2013-07-06 09:43:00,
2013-07-06 03:52:00,48.0,48.0,-100.00,NW,319,17.0,25.0,99,0.00,,,0.47,0.000000,,2013-07-06 09:52:00,
2013-07-06 04:11:00,48.0,48.0,-100.00,NW,319,17.0,25.0,99,0.00,,,0.47,0.000000,,2013-07-06 10:11:00,
2013-07-06 04:22:00,48.0,48.0,-100.00,NW,319,17.0,25.0,99,0.00,,,0.47,0.000000,,2013-07-06 10:22:00,
2013-07-06 04:33:00,48.0,48.0,-100.00,NW,319,17.0,25.0,99,0.00,,,0.47,0.000000,,2013-07-06 10:33:00,
2013-07-06 04:42:00,48.0,48.0,-100.00,NW,319,17.0,25.0,99,0.00,,,0.47,0.000000,,2013-07-06 10:42:00,
2013-07-06 04:52:00,45.0,45.0,-100.00,NW,307,15.0,25.0,99,0.00,,,0.47,0.000000,,2013-07-06 10:52:00,
2013-07-06 05:11:00,45.0,45.0,-100.00,NW,307,15.0,25.0,99,0.00,,,0.47,0.000000,,2013-07-06 11:11:00,
2013-07-06 05:22:00,45.0,45.0,-100.00,NW,307,15.0,25.0,99,0.00,,,0.47,0.000000,,2013-07-06 11:22:00,
2013-07-06 05:33:00,45.0,45.0,-100.00,NW,307,15.0,25.0,99,0.00,,,0.47,0.000000,,2013-07-06 11:33:00,
2013-07-06 05:42:00,45.0,45.0,-100.00,NW,307,15.0,25.0,99,0.00,,,0.47,0.000000,,2013-07-06 11:42:00,
2013-07-06 05:52:00,47.0,43.0,-100.00,NW,309,15.0,24.0,87,0.00,,,0.47,5.000000,,2013-07-06 11:52:00,
2013-07-06 06:11:00,47.0,43.0,-100.00,NW,309,15.0,24.0,87,0.00,,,0.47,5.000000,,2013-07-06 12:11:00,
2013-07-06 06:22:00,47.0,43.0,-100.00,NW,309,15.0,24.0,87,0.00,,,0.47,5.000000,,2013-07-06 12:22:00,
2013-07-06 06:33:00,47.0,43.0,-100.00,NW,309,15.0,24.0,87,0.00,,,0.47,5.000000,,2013-07-06 12:33:00,
2013-07-06 06:43:00,47.0,43.0,-100.00,NW,309,15.0,24.0,87,0.00,,,0.47,5.000000,,2013-07-06 12:43:00,
2013-07-06 06:52:00,48.0,39.0,-100.00,NNW,330,15.0,22.0,72,0.00,,,0.47,116.000000,,2013-07-06 12:52:00,
2013-07-06 07:12:00,48.0,39.0,-100.00,NNW,330,15.0,22.0,72,0.00,,,0.47,116.000000,,2013-07-06 13:12:00,
2013-07-06 07:22:00,48.0,39.0,-100.00,NNW,330,15.0,22.0,72,0.00,,,0.47,116.000000,,2013-07-06 13:22:00,
2013-07-06 07:33:00,48.0,39.0,-100.00,NNW,330,15.0,22.0,72,0.00,,,0.47,116.000000,,2013-07-06 13:33:00,
2013-07-06 07:43:00,48.0,39.0,-100.00,NNW,330,15.0,22.0,72,0.00,,,0.47,116.000000,,2013-07-06 13:43:00,
2013-07-06 07:52:00,48.0,39.0,-100.00,WNW,284,14.0,23.0,70,0.00,,,0.47,321.000000,,2013-07-06 13:52:00,
2013-07-06 08:22:00,48.0,39.0,-100.00,WNW,284,14.0,23.0,70,0.00,,,0.47,321.000000,,2013-07-06 14:22:00,
2013-07-06 08:34:00,48.0,39.0,-100.00,WNW,284,14.0,23.0,70,0.00,,,0.47,321.000000,,2013-07-06 14:34:00,
2013-07-06 08:42:00,48.0,39.0,-100.00,WNW,284,14.0,23.0,70,0.00,,,0.47,321.000000,,2013-07-06 14:42:00,
2013-07-06 08:52:00,50.0,40.0,-100.00,West,268,10.0,20.0,69,0.00,,,0.47,537.000000,,2013-07-06 14:52:00,
2013-07-06 09:22:00,50.0,40.0,-100.00,West,268,10.0,20.0,69,0.00,,,0.47,537.000000,,2013-07-06 15:22:00,
2013-07-06 09:33:00,50.0,40.0,-100.00,West,268,10.0,20.0,69,0.00,,,0.47,537.000000,,2013-07-06 15:33:00,
2013-07-06 09:43:00,50.0,40.0,-100.00,West,268,10.0,20.0,69,0.00,,,0.47,537.000000,,2013-07-06 15:43:00,
2013-07-06 09:52:00,54.0,46.0,-100.00,WNW,283,7.0,18.0,75,0.00,,,0.47,738.000000,,2013-07-06 15:52:00,
2013-07-06 10:15:00,54.0,46.0,-100.00,WNW,283,7.0,18.0,75,0.00,,,0.47,738.000000,,2013-07-06 16:15:00,
2013-07-06 10:24:00,54.0,46.0,-100.00,WNW,283,7.0,18.0,75,0.00,,,0.47,738.000000,,2013-07-06 16:24:00,
2013-07-06 10:41:00,54.0,46.0,-100.00,WNW,283,7.0,18.0,75,0.00,,,0.47,738.000000,,2013-07-06 16:41:00,
2013-07-06 10:51:00,54.0,46.0,-100.00,WNW,283,7.0,18.0,75,0.00,,,0.47,738.000000,,2013-07-06 16:51:00,
2013-07-06 10:52:00,56.0,48.0,-100.00,WNW,285,8.0,19.0,75,0.00,,,0.47,903.000000,,2013-07-06 16:52:00,
2013-07-06 11:21:00,56.0,48.0,-100.00,WNW,285,8.0,19.0,75,0.00,,,0.47,903.000000,,2013-07-06 17:21:00,
2013-07-06 11:41:00,56.0,48.0,-100.00,WNW,285,8.0,19.0,75,0.00,,,0.47,903.000000,,2013-07-06 17:41:00,
2013-07-06 12:42:00,54.0,47.0,-100.00,WNW,300,8.0,16.0,76,0.00,,,0.47,617.000000,,2013-07-06 18:42:00,
2013-07-06 13:21:00,56.0,47.0,-100.00,South,180,8.0,19.0,72,0.00,,,0.47,974.000000,,2013-07-06 19:21:00,
2013-07-06 13:41:00,56.0,47.0,-100.00,South,180,8.0,19.0,72,0.00,,,0.47,974.000000,,2013-07-06 19:41:00,
2013-07-06 13:51:00,56.0,47.0,-100.00,South,180,8.0,19.0,72,0.00,,,0.47,974.000000,,2013-07-06 19:51:00,
2013-07-06 13:52:00,58.0,48.0,-100.00,SSE,166,12.0,21.0,69,0.00,,,0.47,1039.000000,,2013-07-06 19:52:00,
2013-07-06 14:29:00,58.0,48.0,-100.00,SSE,166,12.0,21.0,69,0.00,,,0.47,1039.000000,,2013-07-06 20:29:00,
2013-07-06 14:51:00,58.0,48.0,-100.00,SSE,166,12.0,21.0,69,0.00,,,0.47,1039.000000,,2013-07-06 20:51:00,
2013-07-06 14:52:00,60.0,48.0,-100.00,ESE,113,10.0,22.0,65,0.00,,,0.47,1166.000000,,2013-07-06 20:52:00,
2013-07-06 15:18:00,60.0,48.0,-100.00,ESE,113,10.0,22.0,65,0.00,,,0.47,1166.000000,,2013-07-06 21:18:00,
2013-07-06 15:31:00,60.0,48.0,-100.00,ESE,113,10.0,22.0,65,0.00,,,0.47,1166.000000,,2013-07-06 21:31:00,
2013-07-06 15:41:00,60.0,48.0,-100.00,ESE,113,10.0,22.0,65,0.00,,,0.47,1166.000000,,2013-07-06 21:41:00,
2013-07-06 15:51:00,60.0,48.0,-100.00,ESE,113,10.0,22.0,65,0.00,,,0.47,1166.000000,,2013-07-06 21:51:00,
2013-07-06 15:52:00,59.0,46.0,-100.00,SSW,200,10.0,20.0,62,0.00,,,-99.99,1066.000000,,2013-07-06 21:52:00,
2013-07-06 16:31:00,59.0,46.0,-100.00,SSW,200,10.0,20.0,62,0.00,,,-99.99,1066.000000,,2013-07-06 22:31:00,
2013-07-06 16:41:00,59.0,46.0,-100.00,SSW,200,10.0,20.0,62,0.00,,,-99.99,1066.000000,,2013-07-06 22:41:00,
2013-07-06 17:31:00,62.0,48.0,-100.00,SSW,213,8.0,18.0,60,0.00,,,0.47,895.000000,,2013-07-06 23:31:00,
2013-07-06 17:43:00,62.0,48.0,-100.00,SSW,213,8.0,18.0,60,0.00,,,0.47,895.000000,,2013-07-06 23:43:00,
2013-07-06 17:50:00,62.0,48.0,-100.00,SSW,213,8.0,18.0,60,0.00,,,0.47,895.000000,,2013-07-06 23:50:00,
2013-07-06 18:22:00,60.0,46.0,-100.00,SSW,202,8.0,14.0,60,0.00,,,0.47,725.000000,,2013-07-07 00:22:00,
2013-07-06 18:51:00,60.0,46.0,-100.00,SSW,202,8.0,14.0,60,0.00,,,0.47,725.000000,,2013-07-07 00:51:00,
2013-07-06 18:52:00,60.0,47.0,-100.00,SE,134,8.0,14.0,63,0.00,,,0.47,534.000000,,2013-07-07 00:52:00,
2013-07-06 20:19:00,60.0,48.0,-100.00,NE,52,6.0,12.0,65,0.00,,,0.47,226.000000,,2013-07-07 02:19:00,
2013-07-06 21:19:00,57.0,46.0,-100.00,SE,125,7.0,11.0,66,0.00,,,0.47,86.000000,,2013-07-07 03:19:00,
2013-07-06 21:28:00,57.0,46.0,-100.00,SE,125,7.0,11.0,66,0.00,,,0.47,86.000000,,2013-07-07 03:28:00,
2013-07-06 21:37:00,57.0,46.0,-100.00,SE,125,7.0,11.0,66,0.00,,,0.47,86.000000,,2013-07-07 03:37:00,
2013-07-06 21:47:00,57.0,46.0,-100.00,SE,125,7.0,11.0,66,0.00,,,0.47,86.000000,,2013-07-07 03:47:00,
2013-07-06 22:11:00,55.0,44.0,-100.00,ESE,117,10.0,14.0,66,0.00,,,0.09,12.000000,,2013-07-07 04:11:00,
2013-07-06 22:21:00,55.0,44.0,-100.00,ESE,117,10.0,14.0,66,0.00,,,0.09,12.000000,,2013-07-07 04:21:00,
2013-07-06 22:31:00,55.0,44.0,-100.00,ESE,117,10.0,14.0,66,0.00,,,0.09,12.000000,,2013-07-07 04:31:00,
2013-07-06 22:41:00,55.0,44.0,-100.00,ESE,117,10.0,14.0,66,0.00,,,0.09,12.000000,,2013-07-07 04:41:00,
2013-07-06 22:51:00,55.0,44.0,-100.00,ESE,117,10.0,14.0,66,0.00,,,0.09,12.000000,,2013-07-07 04:51:00,
2013-07-06 23:11:00,55.0,43.0,-100.00,ESE,114,10.0,15.0,63,0.00,,,0.00,0.000000,,2013-07-07 05:11:00,
2013-07-06 23:21:00,55.0,43.0,-100.00,ESE,114,10.0,15.0,63,0.00,,,0.00,0.000000,,2013-07-07 05:21:00,
2013-07-06 23:31:00,55.0,43.0,-100.00,ESE,114,10.0,15.0,63,0.00,,,0.00,0.000000,,2013-07-07 05:31:00,
2013-07-06 23:41:00,55.0,43.0,-100.00,ESE,114,10.0,15.0,63,0.00,,,0.00,0.000000,,2013-07-07 05:41:00,
2013-07-06 23:51:00,55.0,43.0,-100.00,ESE,114,10.0,15.0,63,0.00,,,0.00,0.000000,,2013-07-07 05:51:00,
2013-07-06 23:52:00,52.0,46.0,-100.00,SE,136,15.0,24.0,80,0.00,,,0.00,0.000000,,2013-07-07 05:52:00,